Time;durP1;ratioP1;P1;durP2;ratioP2;P2;SDS_P1;SDS_P2;PMS_P1;PMS_P2;Temp;Humidity;BMP_temperature;BMP_pressure;BME280_temperature;BME280_humidity;BME280_pressure;Samples;Min_cycle;Max_cycle;Signal;HPM_P1;HPM_P2
2022/04/17 00:01:54;;;;;;;4.63;4.23;;;;;;;0.52;100.00;98385.84;4920676;28;20222;-57
2022/04/17 00:04:22;;;;;;;5.33;4.87;;;;;;;0.50;100.00;98381.66;4949794;28;20210;-54
2022/04/17 00:06:50;;;;;;;4.83;4.43;;;;;;;0.49;100.00;98380.81;4943239;28;20237;-57
2022/04/17 00:09:19;;;;;;;4.63;4.17;;;;;;;0.47;100.00;98376.63;4917112;28;20998;-55
2022/04/17 00:11:47;;;;;;;5.00;4.57;;;;;;;0.47;100.00;98374.84;4942833;28;20234;-61
2022/04/17 00:14:15;;;;;;;5.17;4.77;;;;;;;0.43;100.00;98363.78;4943117;28;20371;-54
2022/04/17 00:16:45;;;;;;;4.30;4.00;;;;;;;0.37;100.00;98353.69;4925712;28;20296;-60
2022/04/17 00:19:13;;;;;;;3.90;3.70;;;;;;;0.38;100.00;98372.78;4945942;28;20222;-57
2022/04/17 00:21:41;;;;;;;4.30;4.00;;;;;;;0.42;100.00;98361.25;4944981;28;21047;-58
2022/04/17 00:24:10;;;;;;;4.40;4.10;;;;;;;0.39;100.00;98357.06;4917464;28;20298;-55
2022/04/17 00:26:38;;;;;;;5.13;4.73;;;;;;;0.37;100.00;98358.91;4947692;28;20694;-58
2022/04/17 00:29:06;;;;;;;4.13;3.83;;;;;;;0.38;100.00;98376.25;4943276;28;20230;-56
2022/04/17 00:31:34;;;;;;;5.13;4.63;;;;;;;0.35;100.00;98367.75;4927872;28;20262;-59
2022/04/17 00:34:04;;;;;;;4.00;3.80;;;;;;;0.35;100.00;98362.53;4940391;28;20207;-56
2022/04/17 00:36:32;;;;;;;4.30;3.97;;;;;;;0.31;100.00;98368.88;4947351;28;20553;-59
2022/04/17 00:39:01;;;;;;;3.93;3.63;;;;;;;0.22;100.00;98359.81;4923263;28;20666;-57
2022/04/17 00:41:29;;;;;;;4.67;4.37;;;;;;;0.20;100.00;98356.47;4945197;28;20226;-55
2022/04/17 00:43:57;;;;;;;4.27;4.00;;;;;;;0.16;100.00;98353.19;4944474;28;20234;-59
2022/04/17 00:46:25;;;;;;;4.57;4.27;;;;;;;0.13;100.00;98349.00;4924730;28;20253;-59
2022/04/17 00:48:53;;;;;;;4.50;4.13;;;;;;;0.12;100.00;98346.47;4946779;28;20240;-59
2022/04/17 00:51:23;;;;;;;4.67;4.37;;;;;;;0.12;100.00;98338.66;4941144;28;21059;-56
2022/04/17 00:53:53;;;;;;;5.27;4.87;;;;;;;0.06;100.00;98336.41;4948032;28;20269;-60
2022/04/17 00:56:22;;;;;;;4.57;4.27;;;;;;;0.08;100.00;98337.16;4918767;28;20202;-58
2022/04/17 00:58:51;;;;;;;4.37;3.97;;;;;;;0.02;100.00;98320.13;4946429;28;20291;-55
2022/04/17 01:01:19;;;;;;;4.30;4.00;;;;;;;0.06;100.00;98325.97;4943480;28;20401;-58
2022/04/17 01:04:21;;;;;;;5.87;4.40;;;;;;;0.00;100.00;98329.81;4914237;28;20401;-56
2022/04/17 01:06:51;;;;;;;4.57;4.17;;;;;;;-0.03;100.00;98322.13;4946984;28;20264;-58
2022/04/17 01:09:20;;;;;;;3.97;3.77;;;;;;;-0.03;100.00;98327.34;4945816;28;20230;-54
2022/04/17 01:11:49;;;;;;;4.67;4.37;;;;;;;-0.06;100.00;98319.72;4917175;28;20230;-56
2022/04/17 01:14:17;;;;;;;4.87;4.40;;;;;;;-0.05;100.00;98327.44;4948001;28;20389;-55
2022/04/17 01:16:45;;;;;;;4.50;4.20;;;;;;;-0.01;100.00;98320.28;4943018;28;20211;-55
2022/04/17 01:19:14;;;;;;;6.60;4.47;;;;;;;0.03;100.00;98328.78;4921785;28;20304;-58
2022/04/17 01:21:46;;;;;;;4.90;4.40;;;;;;;0.02;100.00;98321.88;4948842;28;20281;-59
2022/04/17 01:27:03;;;;;;;4.60;4.20;;;;;;;-0.11;100.00;98312.19;4917677;28;21587;-57
2022/04/17 01:29:34;;;;;;;4.27;3.87;;;;;;;-0.19;100.00;98310.00;4947161;28;20640;-56
2022/04/17 01:32:05;;;;;;;3.97;3.77;;;;;;;-0.20;100.00;98302.25;4946742;28;20588;-57
2022/04/17 01:34:33;;;;;;;4.30;4.10;;;;;;;-0.21;100.00;98297.97;4926687;28;20222;-56
2022/04/17 01:37:03;;;;;;;4.43;4.17;;;;;;;-0.20;100.00;98294.44;4942008;28;20199;-57
2022/04/17 01:39:32;;;;;;;4.70;4.40;;;;;;;-0.23;100.00;98292.88;4949306;28;20293;-56
2022/04/17 01:42:01;;;;;;;4.53;4.13;;;;;;;-0.23;100.00;98297.22;4946990;28;20901;-56
2022/04/17 01:44:29;;;;;;;4.83;4.53;;;;;;;-0.22;100.00;98299.75;4919517;28;20562;-57
2022/04/17 01:46:58;;;;;;;4.07;3.80;;;;;;;-0.30;100.00;98295.00;4940700;28;20857;-54
2022/04/17 01:49:27;;;;;;;3.70;3.50;;;;;;;-0.26;100.00;98300.03;4922039;28;20230;-59
2022/04/17 01:51:55;;;;;;;4.30;4.00;;;;;;;-0.34;100.00;98293.50;4947674;28;22537;-56
2022/04/17 01:54:26;;;;;;;4.77;4.47;;;;;;;-0.33;100.00;98289.13;4948195;28;20578;-56
2022/04/17 01:56:55;;;;;;;4.80;4.50;;;;;;;-0.37;100.00;98283.25;4944797;28;20369;-58
2022/04/17 01:59:24;;;;;;;4.67;4.40;;;;;;;-0.40;100.00;98287.78;4919457;28;20246;-55
2022/04/17 02:01:52;;;;;;;4.13;3.73;;;;;;;-0.36;100.00;98286.72;4946284;28;20681;-56
2022/04/17 02:04:21;;;;;;;4.97;4.57;;;;;;;-0.41;100.00;98281.75;4921949;28;20207;-56
2022/04/17 02:06:50;;;;;;;4.60;4.30;;;;;;;-0.44;100.00;98284.53;4944235;28;20357;-57
2022/04/17 02:09:19;;;;;;;4.93;4.53;;;;;;;-0.40;100.00;98286.03;4943286;28;20316;-58
2022/04/17 02:11:49;;;;;;;4.67;4.47;;;;;;;-0.48;100.00;98290.84;4946923;28;20203;-58
2022/04/17 02:14:17;;;;;;;5.40;5.00;;;;;;;-0.49;100.00;98279.56;4917921;28;20677;-59
2022/04/17 02:16:45;;;;;;;4.90;4.60;;;;;;;-0.52;100.00;98281.53;4946145;28;20325;-56
2022/04/17 02:19:14;;;;;;;5.10;4.60;;;;;;;-0.56;100.00;98274.81;4948066;28;20262;-57
2022/04/17 02:21:42;;;;;;;4.70;4.30;;;;;;;-0.62;100.00;98273.41;4922084;28;20965;-58
2022/04/17 02:24:10;;;;;;;4.50;4.20;;;;;;;-0.64;100.00;98270.03;4945378;28;20265;-56
2022/04/17 02:26:38;;;;;;;4.87;4.47;;;;;;;-0.61;100.00;98273.28;4943479;28;20285;-60
2022/04/17 02:29:08;;;;;;;4.43;4.13;;;;;;;-0.60;100.00;98272.38;4947535;28;20424;-57
2022/04/17 02:31:36;;;;;;;4.67;4.33;;;;;;;-0.64;100.00;98262.22;4917458;28;20233;-59
2022/04/17 02:34:05;;;;;;;5.67;5.17;;;;;;;-0.63;100.00;98262.13;4947304;28;20429;-57
2022/04/17 02:36:33;;;;;;;5.93;5.53;;;;;;;-0.65;100.00;98269.19;4918879;28;20238;-57
2022/04/17 02:39:02;;;;;;;5.57;4.83;;;;;;;-0.69;100.00;98261.66;4942619;28;20460;-58
2022/04/17 02:41:30;;;;;;;5.27;4.60;;;;;;;-0.71;100.00;98263.50;4948528;28;20257;-59
2022/04/17 02:43:58;;;;;;;4.53;4.17;;;;;;;-0.76;100.00;98258.56;4942805;28;20789;-54
2022/04/17 02:49:13;;;;;;;4.37;4.00;;;;;;;-0.80;100.00;98264.84;4946054;28;21215;-55
2022/04/17 02:51:42;;;;;;;4.93;4.63;;;;;;;-0.80;100.00;98264.84;4937195;28;20210;-60
2022/04/17 02:54:10;;;;;;;4.40;4.00;;;;;;;-0.80;100.00;98270.06;4932704;28;20206;-59
2022/04/17 02:56:38;;;;;;;5.77;5.00;;;;;;;-0.85;100.00;98259.06;4947338;28;20211;-59
2022/04/17 02:59:06;;;;;;;5.03;4.73;;;;;;;-0.84;100.00;98258.97;4946436;28;20203;-58
2022/04/17 03:07:07;;;;;;;4.73;4.33;;;;;;;-0.90;100.00;98257.56;4910666;28;21037;-58
2022/04/17 03:09:36;;;;;;;4.60;4.37;;;;;;;-0.86;100.00;98246.97;4944313;28;20646;-56
2022/04/17 03:12:04;;;;;;;5.23;4.90;;;;;;;-0.86;100.00;98245.22;4943882;28;20194;-56
2022/04/17 03:14:33;;;;;;;4.90;4.47;;;;;;;-0.78;100.00;98245.59;4942293;28;20202;-60
2022/04/17 03:17:04;;;;;;;4.63;4.33;;;;;;;-0.89;100.00;98238.44;4919091;28;21051;-57
2022/04/17 03:19:32;;;;;;;4.90;4.57;;;;;;;-0.91;100.00;98240.28;4948402;28;20234;-59
2022/04/17 03:22:01;;;;;;;5.37;4.97;;;;;;;-0.94;100.00;98237.84;4926119;28;20284;-58
2022/04/17 03:24:29;;;;;;;5.37;4.63;;;;;;;-0.94;100.00;98239.59;4919352;28;20754;-58
2022/04/17 03:26:57;;;;;;;7.73;5.50;;;;;;;-0.98;100.00;98238.91;4943973;28;20207;-57
2022/04/17 03:29:25;;;;;;;5.30;4.90;;;;;;;-1.00;100.00;98232.13;4942972;28;20233;-58
2022/04/17 03:31:53;;;;;;;4.43;4.20;;;;;;;-1.06;100.00;98228.94;4947574;28;20266;-55
2022/04/17 03:34:23;;;;;;;4.87;4.57;;;;;;;-1.07;100.00;98229.03;4913561;28;21880;-56
2022/04/17 03:36:51;;;;;;;5.07;4.67;;;;;;;-1.08;100.00;98235.16;4947645;28;20237;-60
2022/04/17 03:39:20;;;;;;;5.27;4.80;;;;;;;-1.07;100.00;98231.63;4924260;28;20260;-59
2022/04/17 03:41:48;;;;;;;4.70;4.30;;;;;;;-1.09;100.00;98225.66;4946110;28;20750;-58
2022/04/17 03:44:16;;;;;;;4.33;4.13;;;;;;;-1.06;100.00;98230.69;4949601;28;20254;-58
2022/04/17 03:46:44;;;;;;;4.43;4.20;;;;;;;-1.16;100.00;98217.34;4949333;28;20527;-56
2022/04/17 03:49:12;;;;;;;5.17;4.77;;;;;;;-1.12;100.00;98233.66;4921255;28;20245;-58
2022/04/17 03:51:42;;;;;;;5.40;5.07;;;;;;;-1.12;100.00;98226.69;4947028;28;20424;-59
2022/04/17 03:54:10;;;;;;;4.83;4.33;;;;;;;-1.12;100.00;98218.91;4925577;28;20207;-56
2022/04/17 03:56:38;;;;;;;5.03;4.63;;;;;;;-1.12;100.00;98220.63;4945353;28;20389;-52
2022/04/17 03:59:07;;;;;;;5.13;4.80;;;;;;;-1.11;100.00;98214.50;4951426;28;20313;-60
2022/04/17 04:01:35;;;;;;;4.77;4.47;;;;;;;-1.14;100.00;98206.88;4949492;28;20361;-58
2022/04/17 04:04:03;;;;;;;5.20;4.80;;;;;;;-1.19;100.00;98217.53;4917736;28;20638;-54
2022/04/17 04:06:32;;;;;;;4.90;4.50;;;;;;;-1.15;100.00;98218.22;4944008;28;20210;-58
2022/04/17 04:09:01;;;;;;;5.73;5.20;;;;;;;-1.27;100.00;98217.97;4949501;28;20214;-58
2022/04/17 04:11:30;;;;;;;5.67;4.63;;;;;;;-1.32;100.00;98213.00;4926583;28;20583;-57
2022/04/17 04:13:58;;;;;;;5.33;4.87;;;;;;;-1.34;100.00;98211.41;4953076;28;20268;-59
2022/04/17 04:16:26;;;;;;;5.40;5.00;;;;;;;-1.32;100.00;98205.22;4942382;28;20237;-58
2022/04/17 04:18:55;;;;;;;5.37;5.00;;;;;;;-1.35;100.00;98213.19;4952564;28;20213;-58
2022/04/17 04:21:23;;;;;;;5.33;4.93;;;;;;;-1.40;100.00;98207.41;4916488;28;20817;-58
2022/04/17 04:23:51;;;;;;;5.03;4.63;;;;;;;-1.39;100.00;98214.28;4948682;28;20727;-57
2022/04/17 04:26:21;;;;;;;6.03;5.07;;;;;;;-1.39;100.00;98208.22;4921771;28;20308;-57
2022/04/17 04:28:48;;;;;;;5.87;5.20;;;;;;;-1.39;100.00;98216.00;4945413;28;20205;-58
2022/04/17 04:31:16;;;;;;;5.13;4.73;;;;;;;-1.38;100.00;98218.53;4949248;28;20238;-57
2022/04/17 04:33:45;;;;;;;4.93;4.60;;;;;;;-1.49;100.00;98208.72;4948453;28;20206;-60
2022/04/17 04:36:13;;;;;;;5.03;4.70;;;;;;;-1.43;100.00;98217.97;4921561;28;20360;-55
2022/04/17 04:38:41;;;;;;;5.17;4.87;;;;;;;-1.38;100.00;98213.34;4950231;28;20422;-56
2022/04/17 04:41:10;;;;;;;4.83;4.53;;;;;;;-1.44;100.00;98218.88;4929858;28;20245;-59
2022/04/17 04:43:39;;;;;;;5.30;4.90;;;;;;;-1.44;100.00;98224.09;4944147;28;20238;-57
2022/04/17 04:46:06;;;;;;;4.17;3.97;;;;;;;-1.42;100.00;98224.00;4947272;28;20237;-59
2022/04/17 04:51:23;;;;;;;5.40;4.97;;;;;;;-1.25;100.00;98220.47;4893362;28;20218;-59
2022/04/17 04:53:52;;;;;;;4.77;4.47;;;;;;;-1.17;100.00;98232.13;4949340;28;20288;-59
2022/04/17 04:56:20;;;;;;;5.43;5.00;;;;;;;-0.99;100.00;98233.81;4920413;28;20238;-58
2022/04/17 04:58:50;;;;;;;4.67;4.37;;;;;;;-0.90;100.00;98241.09;4947008;28;20375;-58
2022/04/17 05:01:19;;;;;;;4.87;4.57;;;;;;;-0.90;100.00;98233.28;4948369;28;20280;-59
2022/04/17 05:03:48;;;;;;;5.00;4.63;;;;;;;-0.81;100.00;98226.75;4945970;28;20218;-58
2022/04/17 05:06:17;;;;;;;5.00;4.60;;;;;;;-0.76;100.00;98228.16;4934046;28;20260;-55
2022/04/17 05:08:45;;;;;;;5.00;4.70;;;;;;;-0.69;100.00;98233.03;4935292;28;20499;-58
2022/04/17 05:11:14;;;;;;;4.20;4.00;;;;;;;-0.64;100.00;98220.59;4941185;28;20308;-58
2022/04/17 05:13:43;;;;;;;4.73;4.43;;;;;;;-0.53;100.00;98233.81;4927210;28;20412;-60
2022/04/17 05:16:14;;;;;;;5.27;4.80;;;;;;;-0.35;100.00;98228.50;4947350;28;20705;-57
2022/04/17 05:18:42;;;;;;;4.63;4.33;;;;;;;-0.33;100.00;98227.44;4943426;28;20215;-57
2022/04/17 05:21:10;;;;;;;4.57;4.20;;;;;;;-0.18;100.00;98235.31;4938913;28;20307;-57
2022/04/17 05:23:39;;;;;;;4.87;4.47;;;;;;;-0.07;100.00;98219.03;4924151;28;20775;-58
2022/04/17 05:26:07;;;;;;;4.73;4.43;;;;;;;0.00;100.00;98222.97;4946625;28;20215;-58
2022/04/17 05:28:35;;;;;;;4.53;4.23;;;;;;;0.09;100.00;98222.41;4920322;28;20223;-56
2022/04/17 05:31:03;;;;;;;4.57;4.37;;;;;;;0.16;100.00;98232.47;4947457;28;20236;-59
2022/04/17 05:33:33;;;;;;;4.43;4.13;;;;;;;0.27;100.00;98228.28;4945192;28;20312;-55
2022/04/17 05:36:01;;;;;;;5.27;4.97;;;;;;;0.35;100.00;98232.19;4944870;28;20206;-58
2022/04/17 05:38:29;;;;;;;4.93;4.13;;;;;;;0.57;100.00;98227.34;4914205;28;20500;-56
2022/04/17 05:40:57;;;;;;;4.93;4.63;;;;;;;0.81;100.00;98226.72;4948954;28;20234;-56
2022/04/17 05:43:25;;;;;;;5.30;4.87;;;;;;;0.83;100.00;98224.84;4920711;28;20771;-57
2022/04/17 05:45:53;;;;;;;4.47;4.17;;;;;;;0.86;100.00;98229.88;4944916;28;20245;-60
2022/04/17 05:48:21;;;;;;;4.70;4.27;;;;;;;0.94;100.00;98223.31;4947183;28;20293;-56
2022/04/17 05:50:51;;;;;;;5.30;4.90;;;;;;;1.25;100.00;98219.59;4948300;28;20226;-59
2022/04/17 05:53:19;;;;;;;4.97;4.63;;;;;;;1.55;100.00;98208.09;4929883;28;20254;-57
2022/04/17 05:55:47;;;;;;;3.90;3.57;;;;;;;1.74;100.00;98214.69;4941763;28;20245;-58
2022/04/17 05:58:15;;;;;;;6.50;4.87;;;;;;;1.99;100.00;98206.03;4938401;28;20306;-60
2022/04/17 06:00:44;;;;;;;4.27;4.00;;;;;;;2.06;100.00;98209.06;4927926;28;20497;-57
2022/04/17 06:03:15;;;;;;;4.00;3.77;;;;;;;2.19;100.00;98209.06;4944556;28;20219;-53
2022/04/17 06:05:44;;;;;;;4.47;4.27;;;;;;;2.15;100.00;98208.44;4944959;28;20202;-52
2022/04/17 06:08:14;;;;;;;4.50;4.20;;;;;;;2.33;100.00;98202.88;4935878;28;20234;-59
2022/04/17 06:10:42;;;;;;;4.27;3.97;;;;;;;2.53;100.00;98203.25;4929186;28;20300;-52
2022/04/17 06:13:10;;;;;;;4.17;3.87;;;;;;;2.77;100.00;98203.28;4945329;28;20257;-59
2022/04/17 06:15:39;;;;;;;4.50;4.10;;;;;;;2.96;100.00;98207.22;4920597;28;20225;-58
2022/04/17 06:18:07;;;;;;;3.93;3.73;;;;;;;3.14;100.00;98215.53;4940882;28;20616;-56
2022/04/17 06:20:35;;;;;;;4.10;3.80;;;;;;;3.22;100.00;98223.66;4941572;28;20230;-50
2022/04/17 06:23:03;;;;;;;4.90;3.80;;;;;;;3.38;100.00;98226.00;4945807;28;20264;-57
2022/04/17 06:25:32;;;;;;;4.33;3.97;;;;;;;3.42;100.00;98234.50;4916343;28;20590;-59
2022/04/17 06:28:00;;;;;;;3.70;3.50;;;;;;;3.25;100.00;98238.34;4945809;28;20244;-56
2022/04/17 06:30:29;;;;;;;3.90;3.60;;;;;;;3.21;100.00;98234.25;4919768;28;20944;-53
2022/04/17 06:32:57;;;;;;;4.93;4.53;;;;;;;3.42;100.00;98229.25;4943901;28;20246;-55
2022/04/17 06:35:25;;;;;;;4.30;4.00;;;;;;;3.72;100.00;98227.91;4940221;28;20331;-57
2022/04/17 06:37:54;;;;;;;4.50;4.10;;;;;;;4.02;100.00;98230.03;4947588;28;20207;-59
2022/04/17 06:40:24;;;;;;;4.20;3.90;;;;;;;4.99;100.00;98218.19;4914416;28;20234;-57
2022/04/17 06:42:55;;;;;;;4.13;3.93;;;;;;;5.65;100.00;98216.38;4942079;28;20587;-59
2022/04/17 06:45:24;;;;;;;4.60;4.23;;;;;;;6.83;100.00;98217.00;4925759;28;20261;-54
2022/04/17 06:47:53;;;;;;;3.87;3.67;;;;;;;7.86;97.06;98219.28;4947336;28;20245;-55
2022/04/17 06:50:23;;;;;;;3.73;3.47;;;;;;;9.10;77.16;98218.31;4937477;28;20254;-55
2022/04/17 06:52:52;;;;;;;3.77;3.50;;;;;;;9.70;69.39;98213.41;4944104;28;20694;-53
2022/04/17 06:55:20;;;;;;;4.77;3.60;;;;;;;10.66;62.24;98209.03;4923024;28;20234;-57
2022/04/17 06:57:49;;;;;;;4.37;4.07;;;;;;;10.26;58.44;98226.34;4940513;28;20738;-52
2022/04/17 07:00:22;;;;;;;3.43;3.23;;;;;;;10.38;60.63;98219.78;4932882;28;20230;-56
2022/04/17 07:02:50;;;;;;;3.87;3.33;;;;;;;9.61;63.03;98216.94;4936319;28;20329;-58
2022/04/17 07:05:18;;;;;;;3.07;2.87;;;;;;;8.40;75.42;98216.13;4942088;28;20781;-57
2022/04/17 07:07:46;;;;;;;3.87;3.67;;;;;;;7.80;85.07;98220.69;4946802;28;20470;-57
2022/04/17 07:10:14;;;;;;;3.73;3.47;;;;;;;7.17;96.79;98208.75;4935263;28;20812;-59
2022/04/17 07:12:44;;;;;;;4.23;3.93;;;;;;;7.03;100.00;98212.59;4934802;28;20881;-54
2022/04/17 07:15:12;;;;;;;3.90;3.60;;;;;;;6.89;97.54;98199.84;4951651;28;20202;-55
2022/04/17 07:17:42;;;;;;;3.63;3.43;;;;;;;6.82;100.00;98210.06;4927716;28;20443;-57
2022/04/17 07:20:11;;;;;;;3.23;3.03;;;;;;;7.02;100.00;98215.41;4948121;28;20315;-55
2022/04/17 07:22:40;;;;;;;3.50;3.30;;;;;;;7.07;100.00;98215.81;4946305;28;20415;-57
2022/04/17 07:25:10;;;;;;;4.43;3.33;;;;;;;6.98;100.00;98199.00;4948968;28;20325;-57
2022/04/17 07:27:39;;;;;;;4.13;3.50;;;;;;;6.74;100.00;98207.28;4921745;28;20669;-60
2022/04/17 07:30:11;;;;;;;3.33;3.13;;;;;;;6.92;100.00;98208.28;4947863;28;20242;-61
2022/04/17 07:32:42;;;;;;;5.50;4.50;;;;;;;7.16;100.00;98198.34;4909910;28;20517;-62
2022/04/17 07:35:11;;;;;;;6.43;4.03;;;;;;;7.35;98.98;98194.88;4942830;28;20212;-58
2022/04/17 07:37:39;;;;;;;3.50;3.20;;;;;;;7.51;84.33;98189.06;4947977;28;20687;-58
2022/04/17 07:40:15;;;;;;;3.87;3.57;;;;;;;7.48;88.23;98195.44;4939022;28;21580;-55
2022/04/17 07:42:43;;;;;;;3.47;3.00;;;;;;;7.73;80.57;98190.56;4921423;28;20206;-59
2022/04/17 07:45:12;;;;;;;3.73;3.37;;;;;;;7.97;81.94;98189.28;4944558;28;20226;-61
2022/04/17 07:47:42;;;;;;;3.07;2.87;;;;;;;8.01;82.37;98179.28;4925467;28;20272;-62
2022/04/17 07:50:12;;;;;;;4.77;3.33;;;;;;;8.22;73.91;98184.34;4946215;28;20686;-62
2022/04/17 07:52:41;;;;;;;3.40;3.13;;;;;;;8.36;69.97;98181.22;4944151;28;20337;-57
2022/04/17 07:55:11;;;;;;;2.90;2.70;;;;;;;8.54;64.10;98183.97;4938322;28;20225;-57
2022/04/17 07:57:56;;;;;;;3.37;3.17;;;;;;;8.64;61.01;98176.00;4931997;28;20211;-57
2022/04/17 08:00:27;;;;;;;2.80;2.60;;;;;;;8.77;62.74;98169.53;4947612;28;20229;-52
2022/04/17 08:03:20;;;;;;;2.97;2.87;;;;;;;8.77;57.40;98166.88;4922171;28;21088;-57
2022/04/17 08:05:50;;;;;;;3.40;3.20;;;;;;;8.71;57.95;98164.84;4945914;28;20226;-56
2022/04/17 08:08:18;;;;;;;5.27;2.93;;;;;;;8.83;57.15;98159.19;4947594;28;20537;-60
2022/04/17 08:10:46;;;;;;;4.27;3.37;;;;;;;9.02;56.71;98153.94;4939487;28;20261;-57
2022/04/17 08:13:16;;;;;;;3.00;2.73;;;;;;;9.25;57.91;98159.59;4919710;28;20269;-56
2022/04/17 08:15:44;;;;;;;3.47;2.73;;;;;;;9.52;55.35;98152.56;4945164;28;20285;-57
2022/04/17 08:18:13;;;;;;;4.17;2.90;;;;;;;9.50;52.21;98154.53;4925907;28;20323;-55
2022/04/17 08:20:42;;;;;;;2.70;2.50;;;;;;;9.37;51.27;98145.16;4944700;28;20658;-58
2022/04/17 08:23:10;;;;;;;2.77;2.53;;;;;;;9.72;52.21;98149.72;4948761;28;20346;-59
2022/04/17 08:25:38;;;;;;;2.70;2.50;;;;;;;9.59;50.73;98134.25;4945122;28;20229;-57
2022/04/17 08:28:07;;;;;;;2.67;2.47;;;;;;;9.58;52.51;98146.66;4939103;28;20446;-56
2022/04/17 08:30:36;;;;;;;2.67;2.57;;;;;;;9.50;50.26;98141.31;4916461;28;20292;-59
2022/04/17 08:33:06;;;;;;;3.50;3.20;;;;;;;9.33;50.33;98137.69;4918366;28;20337;-56
2022/04/17 08:35:36;;;;;;;2.83;2.63;;;;;;;9.53;49.70;98135.69;4949027;28;20297;-58
2022/04/17 08:38:04;;;;;;;2.77;1.90;;;;;;;9.52;50.46;98137.50;4946692;28;20914;-58
2022/04/17 08:40:33;;;;;;;2.33;2.17;;;;;;;9.69;51.58;98140.28;4945755;28;20238;-58
2022/04/17 08:43:01;;;;;;;2.80;2.50;;;;;;;9.70;51.08;98124.25;4938296;28;20304;-54
2022/04/17 08:45:29;;;;;;;2.30;2.10;;;;;;;9.84;49.54;98128.13;4919720;28;20908;-56
2022/04/17 08:47:57;;;;;;;4.47;4.17;;;;;;;9.65;49.13;98121.22;4942508;28;20467;-55
2022/04/17 08:50:25;;;;;;;2.60;2.50;;;;;;;9.49;50.67;98127.22;4923594;28;20725;-56
2022/04/17 08:52:55;;;;;;;2.67;2.47;;;;;;;9.36;51.49;98121.53;4943186;28;20583;-56
2022/04/17 08:55:23;;;;;;;4.67;3.97;;;;;;;9.71;50.82;98119.78;4948098;28;20237;-57
2022/04/17 08:57:52;;;;;;;3.33;3.13;;;;;;;10.02;48.43;98118.47;4936728;28;20229;-58
2022/04/17 09:00:20;;;;;;;3.60;3.30;;;;;;;10.02;48.39;98113.19;4947466;28;20740;-54
2022/04/17 09:02:49;;;;;;;3.60;3.30;;;;;;;9.75;51.03;98115.00;4913460;28;20215;-56
2022/04/17 09:05:19;;;;;;;3.03;2.80;;;;;;;9.62;50.17;98113.59;4919015;28;20242;-57
2022/04/17 09:07:49;;;;;;;2.87;2.57;;;;;;;9.77;51.19;98108.56;4941425;28;20578;-58
2022/04/17 09:10:29;;;;;;;7.03;6.33;;;;;;;10.02;49.16;98108.69;4947819;28;20837;-57
2022/04/17 09:12:57;;;;;;;2.67;2.47;;;;;;;9.94;49.06;98106.00;4941288;28;20436;-59
2022/04/17 09:15:26;;;;;;;2.20;2.10;;;;;;;9.96;49.43;98107.53;4956234;28;20207;-60
2022/04/17 09:17:54;;;;;;;2.43;2.23;;;;;;;9.97;50.84;98103.91;4916548;28;20298;-58
2022/04/17 09:20:24;;;;;;;2.60;2.27;;;;;;;9.91;50.28;98101.88;4918533;28;20337;-56
2022/04/17 09:22:53;;;;;;;2.40;2.20;;;;;;;9.77;49.71;98103.28;4940130;28;20223;-56
2022/04/17 09:25:24;;;;;;;2.27;2.17;;;;;;;9.95;46.57;98100.56;4945476;28;20202;-57
2022/04/17 09:28:01;;;;;;;10.33;8.57;;;;;;;10.10;49.71;98097.31;4940896;28;20444;-55
2022/04/17 09:30:31;;;;;;;3.13;2.93;;;;;;;9.88;48.13;98098.69;4934092;28;20242;-56
2022/04/17 09:32:59;;;;;;;2.40;2.30;;;;;;;10.11;47.06;98083.94;4917618;28;20305;-56
2022/04/17 09:35:28;;;;;;;4.10;3.80;;;;;;;10.19;47.03;98082.31;4921388;28;20301;-57
2022/04/17 09:37:58;;;;;;;2.37;2.27;;;;;;;10.18;45.53;98084.13;4944917;28;20304;-56
2022/04/17 09:40:27;;;;;;;4.37;4.07;;;;;;;10.34;46.83;98079.88;4946119;28;20495;-55
2022/04/17 09:43:13;;;;;;;4.83;4.43;;;;;;;10.59;47.11;98078.16;4942193;28;20699;-59
2022/04/17 09:45:56;;;;;;;5.40;5.00;;;;;;;10.40;46.90;98077.44;4936495;28;20551;-55
2022/04/17 09:48:24;;;;;;;3.93;3.63;;;;;;;10.37;46.36;98077.72;4917517;28;20218;-59
2022/04/17 09:50:52;;;;;;;3.07;2.87;;;;;;;10.63;44.76;98079.50;4918475;28;20321;-55
2022/04/17 09:53:34;;;;;;;3.53;3.23;;;;;;;10.83;44.26;98074.72;4945687;28;20212;-55
2022/04/17 09:56:10;;;;;;;3.53;3.33;;;;;;;11.02;45.48;98064.81;4944600;28;20328;-57
2022/04/17 09:58:45;;;;;;;3.03;2.83;;;;;;;10.96;44.77;98071.59;4942973;28;20293;-58
2022/04/17 10:01:16;;;;;;;3.23;2.97;;;;;;;11.00;45.50;98069.47;4941853;28;20229;-57
2022/04/17 10:03:44;;;;;;;4.20;3.90;;;;;;;11.11;45.18;98065.63;4921432;28;20248;-56
2022/04/17 10:06:13;;;;;;;3.40;3.20;;;;;;;10.93;44.87;98066.63;4942692;28;20226;-59
2022/04/17 10:08:44;;;;;;;3.53;3.33;;;;;;;11.23;44.30;98056.34;4922488;28;20278;-57
2022/04/17 10:11:14;;;;;;;33.67;30.17;;;;;;;11.41;45.42;98058.84;4943950;28;20318;-59
2022/04/17 10:13:45;;;;;;;5.80;5.30;;;;;;;11.49;43.71;98046.53;4942287;28;20309;-56
2022/04/17 10:16:14;;;;;;;3.80;3.50;;;;;;;11.61;43.81;98044.38;4939212;28;20201;-57
2022/04/17 10:18:44;;;;;;;4.00;3.60;;;;;;;11.46;43.30;98029.13;4926008;28;20272;-57
2022/04/17 10:21:13;;;;;;;4.30;4.00;;;;;;;11.59;43.55;98028.59;4939724;28;20245;-58
2022/04/17 10:23:43;;;;;;;4.17;2.80;;;;;;;11.57;43.78;98023.47;4923345;28;20221;-59
2022/04/17 10:26:16;;;;;;;3.13;2.63;;;;;;;11.35;45.22;98021.53;4942737;28;20226;-57
2022/04/17 10:28:50;;;;;;;3.93;3.67;;;;;;;11.65;44.38;98012.00;4942226;28;20229;-59
2022/04/17 10:31:20;;;;;;;2.87;2.77;;;;;;;11.80;44.39;98003.34;4934450;28;20339;-59
2022/04/17 10:34:18;;;;;;;8.70;8.00;;;;;;;12.18;42.97;98014.16;4940977;28;20758;-56
2022/04/17 10:36:57;;;;;;;6.47;5.87;;;;;;;12.66;43.98;98008.69;4914119;28;21570;-60
2022/04/17 10:39:30;;;;;;;5.93;5.33;;;;;;;12.52;42.87;98001.50;4919934;28;20489;-58
2022/04/17 10:42:08;;;;;;;3.10;2.90;;;;;;;12.55;41.35;98001.16;4938073;28;20485;-55
2022/04/17 10:44:41;;;;;;;3.10;2.90;;;;;;;12.45;41.12;98001.38;4941910;28;20301;-54
2022/04/17 10:47:19;;;;;;;3.17;2.97;;;;;;;12.12;41.25;97997.06;4934903;28;20757;-58
2022/04/17 10:49:56;;;;;;;3.70;3.43;;;;;;;11.92;41.50;97991.31;4943193;28;20230;-58
2022/04/17 10:52:29;;;;;;;3.37;3.07;;;;;;;11.98;42.00;97990.63;4916611;28;20677;-54
2022/04/17 10:55:08;;;;;;;2.73;2.53;;;;;;;12.32;39.31;97982.53;4919295;28;20538;-57
2022/04/17 10:57:44;;;;;;;2.73;2.57;;;;;;;12.59;40.28;97982.00;4947354;28;20610;-57
2022/04/17 11:00:28;;;;;;;3.33;3.03;;;;;;;12.91;40.46;97965.97;4947656;28;20720;-58
2022/04/17 11:03:20;;;;;;;2.93;2.70;;;;;;;12.71;39.65;97970.94;4936470;28;20702;-57
2022/04/17 11:08:47;;;;;;;5.90;5.40;;;;;;;12.62;40.27;97959.56;4922154;28;20549;-59
2022/04/17 11:11:15;;;;;;;5.03;4.57;;;;;;;12.73;39.33;97961.81;4940093;28;20225;-56
2022/04/17 11:14:08;;;;;;;3.43;3.03;;;;;;;12.62;39.87;97958.75;4942398;28;20622;-59
2022/04/17 11:16:47;;;;;;;4.77;3.03;;;;;;;12.62;40.20;97953.41;4944500;28;20297;-56
2022/04/17 11:19:17;;;;;;;3.10;2.80;;;;;;;12.79;40.39;97938.97;4936894;28;20261;-59
2022/04/17 11:21:46;;;;;;;2.93;2.73;;;;;;;13.02;38.50;97930.13;4921574;28;20199;-60
2022/04/17 11:24:15;;;;;;;3.23;2.63;;;;;;;13.08;37.57;97921.41;4919177;28;20361;-60
2022/04/17 11:27:07;;;;;;;2.97;2.77;;;;;;;13.41;40.73;97917.56;4944937;28;20726;-57
2022/04/17 11:29:40;;;;;;;3.40;3.20;;;;;;;13.36;37.92;97922.63;4945505;28;20254;-57
2022/04/17 11:32:50;;;;;;;3.00;2.80;;;;;;;13.07;38.52;97914.44;4942223;28;20521;-58
2022/04/17 11:35:23;;;;;;;2.30;2.20;;;;;;;12.84;37.40;97915.31;4862364;29;20514;-57
2022/04/17 11:37:56;;;;;;;3.00;2.80;;;;;;;12.91;39.06;97912.78;4841336;29;20780;-58
2022/04/17 11:40:26;;;;;;;3.20;2.97;;;;;;;12.66;38.45;97912.19;4846772;29;20232;-57
2022/04/17 11:42:56;;;;;;;2.37;2.27;;;;;;;12.88;38.24;97906.00;4868148;29;20519;-59
2022/04/17 11:45:26;;;;;;;2.70;2.50;;;;;;;12.91;37.67;97894.16;4872005;29;20785;-55
2022/04/17 11:47:56;;;;;;;2.30;2.10;;;;;;;12.84;37.68;97896.72;4866763;29;20521;-55
2022/04/17 11:50:27;;;;;;;2.93;2.73;;;;;;;12.72;38.26;97903.47;4862403;29;20278;-60
2022/04/17 11:52:57;;;;;;;2.77;2.57;;;;;;;13.21;38.36;97888.03;4837297;29;20561;-54
2022/04/17 11:55:28;;;;;;;2.97;2.63;;;;;;;13.45;37.59;97895.75;4847808;29;20228;-56
2022/04/17 11:57:56;;;;;;;2.40;2.20;;;;;;;13.62;36.49;97894.75;4869365;29;20627;-54
2022/04/17 12:00:26;;;;;;;2.90;2.70;;;;;;;13.53;37.11;97888.69;4875216;29;20393;-56
2022/04/17 12:03:00;;;;;;;3.13;2.70;;;;;;;13.50;38.56;97884.56;4868545;29;20242;-56